sensor_id;sensor_type;location;lat;lon;timestamp;pressure;altitude;pressure_sealevel;temperature;humidity
33949;BME280;20229;49.856;19.030;2023-03-25T00:05:13;100479.30;;;13.88;72.46
33949;BME280;20229;49.856;19.030;2023-03-25T00:10:28;100498.41;;;13.90;73.32
33949;BME280;20229;49.856;19.030;2023-03-25T00:15:44;100496.41;;;13.92;74.62
33949;BME280;20229;49.856;19.030;2023-03-25T00:21:02;100501.24;;;13.88;74.16
33949;BME280;20229;49.856;19.030;2023-03-25T00:26:16;100506.86;;;13.87;74.78
33949;BME280;20229;49.856;19.030;2023-03-25T00:31:30;100494.14;;;13.86;75.29
33949;BME280;20229;49.856;19.030;2023-03-25T00:36:44;100484.14;;;13.85;74.55
33949;BME280;20229;49.856;19.030;2023-03-25T00:41:58;100487.01;;;13.83;74.64
33949;BME280;20229;49.856;19.030;2023-03-25T00:47:14;100486.78;;;13.86;75.62
33949;BME280;20229;49.856;19.030;2023-03-25T00:52:32;100500.85;;;13.82;75.20
33949;BME280;20229;49.856;19.030;2023-03-25T00:57:47;100510.92;;;13.81;75.45
33949;BME280;20229;49.856;19.030;2023-03-25T01:03:01;100499.20;;;13.79;75.35
33949;BME280;20229;49.856;19.030;2023-03-25T01:08:16;100496.45;;;13.79;74.89
33949;BME280;20229;49.856;19.030;2023-03-25T01:13:31;100494.93;;;13.75;76.35
33949;BME280;20229;49.856;19.030;2023-03-25T01:18:44;100499.77;;;13.72;75.64
33949;BME280;20229;49.856;19.030;2023-03-25T01:23:58;100500.07;;;13.67;76.56
33949;BME280;20229;49.856;19.030;2023-03-25T01:29:14;100498.54;;;13.63;76.67
33949;BME280;20229;49.856;19.030;2023-03-25T01:34:31;100494.28;;;13.59;77.20
33949;BME280;20229;49.856;19.030;2023-03-25T01:39:45;100479.82;;;13.57;76.91
33949;BME280;20229;49.856;19.030;2023-03-25T01:45:12;100483.96;;;13.50;78.49
33949;BME280;20229;49.856;19.030;2023-03-25T01:56:26;100484.64;;;13.41;79.05
33949;BME280;20229;49.856;19.030;2023-03-25T02:01:47;100486.17;;;13.32;80.65
33949;BME280;20229;49.856;19.030;2023-03-25T02:07:01;100491.77;;;13.30;79.79
33949;BME280;20229;49.856;19.030;2023-03-25T02:12:15;100491.89;;;13.29;78.71
33949;BME280;20229;49.856;19.030;2023-03-25T02:28:33;100513.91;;;13.27;80.08
33949;BME280;20229;49.856;19.030;2023-03-25T02:44:56;100506.55;;;13.15;81.01
33949;BME280;20229;49.856;19.030;2023-03-25T02:50:13;100505.76;;;13.13;81.10
33949;BME280;20229;49.856;19.030;2023-03-25T02:55:29;100520.55;;;13.10;81.28
33949;BME280;20229;49.856;19.030;2023-03-25T03:00:47;100515.17;;;13.09;82.14
33949;BME280;20229;49.856;19.030;2023-03-25T03:06:02;100531.29;;;13.01;82.97
33949;BME280;20229;49.856;19.030;2023-03-25T03:11:27;100537.18;;;12.95;84.19
33949;BME280;20229;49.856;19.030;2023-03-25T03:22:48;100560.38;;;12.76;85.63
33949;BME280;20229;49.856;19.030;2023-03-25T03:28:24;100547.96;;;12.71;86.37
33949;BME280;20229;49.856;19.030;2023-03-25T03:33:44;100570.71;;;12.58;88.76
33949;BME280;20229;49.856;19.030;2023-03-25T03:39:09;100573.17;;;12.49;85.71
33949;BME280;20229;49.856;19.030;2023-03-25T03:44:32;100567.06;;;12.31;86.75
33949;BME280;20229;49.856;19.030;2023-03-25T03:49:56;100565.79;;;12.22;88.33
33949;BME280;20229;49.856;19.030;2023-03-25T03:55:17;100565.99;;;12.19;88.49
33949;BME280;20229;49.856;19.030;2023-03-25T04:06:10;100581.27;;;12.09;89.02
33949;BME280;20229;49.856;19.030;2023-03-25T04:11:34;100591.53;;;12.05;89.84
33949;BME280;20229;49.856;19.030;2023-03-25T04:16:50;100581.66;;;12.03;89.89
33949;BME280;20229;49.856;19.030;2023-03-25T04:22:06;100583.91;;;11.96;90.55
33949;BME280;20229;49.856;19.030;2023-03-25T04:27:21;100587.91;;;11.90;91.06
33949;BME280;20229;49.856;19.030;2023-03-25T04:32:43;100582.85;;;11.84;91.41
33949;BME280;20229;49.856;19.030;2023-03-25T04:37:59;100585.14;;;11.76;91.19
33949;BME280;20229;49.856;19.030;2023-03-25T04:43:15;100582.60;;;11.73;91.39
33949;BME280;20229;49.856;19.030;2023-03-25T04:48:30;100590.12;;;11.69;91.72
33949;BME280;20229;49.856;19.030;2023-03-25T04:53:46;100588.29;;;11.70;91.75
33949;BME280;20229;49.856;19.030;2023-03-25T04:59:00;100593.84;;;11.68;91.88
33949;BME280;20229;49.856;19.030;2023-03-25T05:04:15;100620.30;;;11.68;92.37
33949;BME280;20229;49.856;19.030;2023-03-25T05:09:29;100611.12;;;11.69;92.97
33949;BME280;20229;49.856;19.030;2023-03-25T05:14:44;100615.70;;;11.68;93.14
33949;BME280;20229;49.856;19.030;2023-03-25T05:19:58;100623.73;;;11.71;92.40
33949;BME280;20229;49.856;19.030;2023-03-25T05:25:19;100626.35;;;11.73;91.42
33949;BME280;20229;49.856;19.030;2023-03-25T05:30:36;100627.34;;;11.72;90.40
33949;BME280;20229;49.856;19.030;2023-03-25T05:35:53;100623.84;;;11.70;89.26
33949;BME280;20229;49.856;19.030;2023-03-25T05:41:13;100636.59;;;11.69;88.16
33949;BME280;20229;49.856;19.030;2023-03-25T05:46:30;100632.61;;;11.75;87.97
33949;BME280;20229;49.856;19.030;2023-03-25T05:51:43;100626.27;;;11.75;87.35
33949;BME280;20229;49.856;19.030;2023-03-25T05:56:57;100654.68;;;11.72;86.82
33949;BME280;20229;49.856;19.030;2023-03-25T06:02:13;100648.44;;;11.70;87.42
33949;BME280;20229;49.856;19.030;2023-03-25T06:07:28;100657.84;;;11.80;86.70
33949;BME280;20229;49.856;19.030;2023-03-25T06:12:44;100661.88;;;11.89;85.36
33949;BME280;20229;49.856;19.030;2023-03-25T06:17:59;100657.59;;;11.99;84.19
33949;BME280;20229;49.856;19.030;2023-03-25T06:23:13;100655.54;;;12.17;83.00
33949;BME280;20229;49.856;19.030;2023-03-25T06:28:27;100657.48;;;12.29;82.04
33949;BME280;20229;49.856;19.030;2023-03-25T06:33:46;100663.16;;;12.40;80.94
33949;BME280;20229;49.856;19.030;2023-03-25T06:39:02;100676.40;;;12.61;79.43
33949;BME280;20229;49.856;19.030;2023-03-25T06:44:18;100679.73;;;12.66;78.91
33949;BME280;20229;49.856;19.030;2023-03-25T06:49:32;100670.90;;;12.75;77.13
33949;BME280;20229;49.856;19.030;2023-03-25T06:54:45;100672.72;;;12.89;76.39
33949;BME280;20229;49.856;19.030;2023-03-25T06:59:59;100653.61;;;13.02;76.77
33949;BME280;20229;49.856;19.030;2023-03-25T07:05:13;100651.69;;;13.16;75.39
33949;BME280;20229;49.856;19.030;2023-03-25T07:10:29;100648.15;;;13.29;73.69
33949;BME280;20229;49.856;19.030;2023-03-25T07:15:44;100642.71;;;13.67;75.34
33949;BME280;20229;49.856;19.030;2023-03-25T07:20:59;100626.98;;;17.44;67.05
33949;BME280;20229;49.856;19.030;2023-03-25T07:26:13;100618.23;;;20.75;54.87
33949;BME280;20229;49.856;19.030;2023-03-25T07:31:27;100612.04;;;22.58;47.86
33949;BME280;20229;49.856;19.030;2023-03-25T07:36:43;100605.47;;;24.88;44.10
33949;BME280;20229;49.856;19.030;2023-03-25T07:41:57;100594.57;;;24.62;44.04
33949;BME280;20229;49.856;19.030;2023-03-25T07:47:11;100610.95;;;23.93;42.56
33949;BME280;20229;49.856;19.030;2023-03-25T07:52:25;100601.05;;;24.94;39.99
33949;BME280;20229;49.856;19.030;2023-03-25T07:57:39;100616.27;;;24.36;40.83
33949;BME280;20229;49.856;19.030;2023-03-25T08:02:56;100611.84;;;23.85;41.88
33949;BME280;20229;49.856;19.030;2023-03-25T08:08:10;100613.35;;;23.55;42.48
33949;BME280;20229;49.856;19.030;2023-03-25T08:13:24;100625.61;;;23.04;43.67
33949;BME280;20229;49.856;19.030;2023-03-25T08:18:39;100619.25;;;22.85;42.97
33949;BME280;20229;49.856;19.030;2023-03-25T08:24:02;100636.76;;;22.35;44.39
33949;BME280;20229;49.856;19.030;2023-03-25T08:29:17;100618.65;;;21.43;45.15
33949;BME280;20229;49.856;19.030;2023-03-25T08:34:32;100619.05;;;20.85;47.05
33949;BME280;20229;49.856;19.030;2023-03-25T08:39:53;100607.35;;;20.64;47.90
33949;BME280;20229;49.856;19.030;2023-03-25T08:45:11;100611.90;;;20.55;47.87
33949;BME280;20229;49.856;19.030;2023-03-25T08:50:25;100606.46;;;20.26;47.42
33949;BME280;20229;49.856;19.030;2023-03-25T08:55:39;100595.86;;;20.12;49.08
33949;BME280;20229;49.856;19.030;2023-03-25T09:00:54;100594.53;;;20.16;48.39
33949;BME280;20229;49.856;19.030;2023-03-25T09:06:08;100593.93;;;20.22;49.34
33949;BME280;20229;49.856;19.030;2023-03-25T09:11:22;100603.14;;;20.13;47.10
33949;BME280;20229;49.856;19.030;2023-03-25T09:16:36;100594.76;;;19.85;49.15
33949;BME280;20229;49.856;19.030;2023-03-25T09:21:50;100590.42;;;19.73;49.58
33949;BME280;20229;49.856;19.030;2023-03-25T09:31:50;100598.73;;;19.63;48.33
33949;BME280;20229;49.856;19.030;2023-03-25T09:37:17;100591.59;;;19.31;48.35
33949;BME280;20229;49.856;19.030;2023-03-25T09:42:41;100578.64;;;19.22;49.39
33949;BME280;20229;49.856;19.030;2023-03-25T09:48:18;100587.07;;;19.21;47.89
33949;BME280;20229;49.856;19.030;2023-03-25T09:53:33;100588.77;;;18.83;49.37
33949;BME280;20229;49.856;19.030;2023-03-25T09:58:55;100579.45;;;18.74;48.83
33949;BME280;20229;49.856;19.030;2023-03-25T10:21:07;100559.48;;;18.21;50.12
33949;BME280;20229;49.856;19.030;2023-03-25T10:26:27;100550.43;;;18.19;51.04
33949;BME280;20229;49.856;19.030;2023-03-25T10:31:52;100533.41;;;18.63;50.86
33949;BME280;20229;49.856;19.030;2023-03-25T10:37:10;100506.53;;;19.04;48.72
33949;BME280;20229;49.856;19.030;2023-03-25T10:42:34;100502.24;;;19.58;48.40
33949;BME280;20229;49.856;19.030;2023-03-25T10:47:53;100507.05;;;20.03;46.84
33949;BME280;20229;49.856;19.030;2023-03-25T10:53:34;100512.09;;;19.90;47.30
33949;BME280;20229;49.856;19.030;2023-03-25T10:58:39;100514.66;;;19.25;46.13
33949;BME280;20229;49.856;19.030;2023-03-25T11:03:56;100517.74;;;18.74;46.66
33949;BME280;20229;49.856;19.030;2023-03-25T11:09:22;100512.11;;;18.35;48.71
33949;BME280;20229;49.856;19.030;2023-03-25T11:14:38;100516.09;;;18.11;48.48
33949;BME280;20229;49.856;19.030;2023-03-25T11:20:00;100532.21;;;17.76;48.20
33949;BME280;20229;49.856;19.030;2023-03-25T11:25:47;100545.81;;;17.26;49.88
33949;BME280;20229;49.856;19.030;2023-03-25T11:36:30;100578.52;;;16.98;51.55
33949;BME280;20229;49.856;19.030;2023-03-25T11:41:45;100615.93;;;16.68;52.66
33949;BME280;20229;49.856;19.030;2023-03-25T11:47:05;100618.57;;;15.91;54.14
33949;BME280;20229;49.856;19.030;2023-03-25T11:52:23;100663.46;;;15.21;57.36
33949;BME280;20229;49.856;19.030;2023-03-25T11:57:39;100648.92;;;14.71;59.08
33949;BME280;20229;49.856;19.030;2023-03-25T12:03:02;100626.99;;;14.46;60.09
33949;BME280;20229;49.856;19.030;2023-03-25T12:08:17;100591.10;;;14.23;61.24
33949;BME280;20229;49.856;19.030;2023-03-25T12:41:21;100530.72;;;15.88;63.50
33949;BME280;20229;49.856;19.030;2023-03-25T12:52:18;100525.08;;;15.78;63.64
33949;BME280;20229;49.856;19.030;2023-03-25T13:08:37;100521.68;;;15.06;61.20
33949;BME280;20229;49.856;19.030;2023-03-25T13:13:56;100517.93;;;15.07;63.08
33949;BME280;20229;49.856;19.030;2023-03-25T13:19:20;100509.14;;;15.37;61.43
33949;BME280;20229;49.856;19.030;2023-03-25T13:24:51;100489.20;;;15.69;58.81
33949;BME280;20229;49.856;19.030;2023-03-25T13:30:11;100481.05;;;15.78;58.63
33949;BME280;20229;49.856;19.030;2023-03-25T13:46:21;100476.16;;;15.82;58.05
33949;BME280;20229;49.856;19.030;2023-03-25T13:51:37;100480.94;;;15.80;56.71
33949;BME280;20229;49.856;19.030;2023-03-25T14:08:28;100514.13;;;15.43;54.13
33949;BME280;20229;49.856;19.030;2023-03-25T14:13:54;100529.19;;;15.15;52.38
33949;BME280;20229;49.856;19.030;2023-03-25T14:19:16;100504.62;;;14.90;54.47
33949;BME280;20229;49.856;19.030;2023-03-25T14:24:34;100515.11;;;14.85;56.24
33949;BME280;20229;49.856;19.030;2023-03-25T14:29:59;100516.58;;;14.77;53.35
33949;BME280;20229;49.856;19.030;2023-03-25T14:40:49;100514.61;;;14.43;53.82
33949;BME280;20229;49.856;19.030;2023-03-25T14:46:36;100527.80;;;14.14;54.91
33949;BME280;20229;49.856;19.030;2023-03-25T14:51:55;100524.29;;;13.99;55.66
33949;BME280;20229;49.856;19.030;2023-03-25T14:57:17;100535.17;;;13.87;56.41
33949;BME280;20229;49.856;19.030;2023-03-25T15:02:34;100543.41;;;13.87;57.68
33949;BME280;20229;49.856;19.030;2023-03-25T15:07:57;100546.49;;;13.83;57.74
33949;BME280;20229;49.856;19.030;2023-03-25T15:24:12;100539.01;;;13.85;57.60
33949;BME280;20229;49.856;19.030;2023-03-25T15:35:33;100542.52;;;14.00;58.35
33949;BME280;20229;49.856;19.030;2023-03-25T15:51:54;100498.46;;;14.14;58.24
33949;BME280;20229;49.856;19.030;2023-03-25T16:08:09;100522.70;;;13.58;56.13
33949;BME280;20229;49.856;19.030;2023-03-25T16:13:23;100518.20;;;13.44;56.51
33949;BME280;20229;49.856;19.030;2023-03-25T16:18:41;100507.13;;;13.33;56.83
33949;BME280;20229;49.856;19.030;2023-03-25T16:24:01;100510.52;;;13.24;56.99
33949;BME280;20229;49.856;19.030;2023-03-25T16:29:22;100520.88;;;13.06;57.99
33949;BME280;20229;49.856;19.030;2023-03-25T16:34:39;100510.42;;;12.85;57.84
33949;BME280;20229;49.856;19.030;2023-03-25T16:39:56;100511.01;;;12.63;58.49
33949;BME280;20229;49.856;19.030;2023-03-25T16:45:14;100512.94;;;12.49;59.02
33949;BME280;20229;49.856;19.030;2023-03-25T16:50:29;100518.35;;;12.36;59.56
33949;BME280;20229;49.856;19.030;2023-03-25T16:55:46;100520.94;;;12.25;60.10
33949;BME280;20229;49.856;19.030;2023-03-25T17:01:09;100524.38;;;12.14;61.27
33949;BME280;20229;49.856;19.030;2023-03-25T17:06:32;100535.71;;;12.08;60.66
33949;BME280;20229;49.856;19.030;2023-03-25T17:11:56;100535.91;;;12.05;61.19
33949;BME280;20229;49.856;19.030;2023-03-25T17:22:37;100549.02;;;12.00;61.58
33949;BME280;20229;49.856;19.030;2023-03-25T17:27:56;100544.55;;;11.99;61.83
33949;BME280;20229;49.856;19.030;2023-03-25T17:33:13;100554.88;;;11.93;61.30
33949;BME280;20229;49.856;19.030;2023-03-25T17:38:35;100540.72;;;11.87;61.61
33949;BME280;20229;49.856;19.030;2023-03-25T17:43:53;100554.37;;;11.72;61.22
33949;BME280;20229;49.856;19.030;2023-03-25T17:49:14;100560.45;;;11.63;61.51
33949;BME280;20229;49.856;19.030;2023-03-25T17:54:29;100565.02;;;11.48;61.92
33949;BME280;20229;49.856;19.030;2023-03-25T17:59:45;100570.48;;;11.34;62.37
33949;BME280;20229;49.856;19.030;2023-03-25T18:04:59;100576.10;;;11.17;63.04
33949;BME280;20229;49.856;19.030;2023-03-25T18:10:19;100576.05;;;11.03;63.96
33949;BME280;20229;49.856;19.030;2023-03-25T18:15:35;100573.87;;;10.93;64.71
33949;BME280;20229;49.856;19.030;2023-03-25T18:20:51;100577.58;;;10.92;64.67
33949;BME280;20229;49.856;19.030;2023-03-25T18:26:10;100591.59;;;10.86;65.63
33949;BME280;20229;49.856;19.030;2023-03-25T18:31:24;100584.73;;;10.79;65.46
33949;BME280;20229;49.856;19.030;2023-03-25T18:36:39;100597.98;;;10.71;66.07
33949;BME280;20229;49.856;19.030;2023-03-25T18:41:54;100600.63;;;10.57;66.75
33949;BME280;20229;49.856;19.030;2023-03-25T18:47:08;100602.30;;;10.43;66.64
33949;BME280;20229;49.856;19.030;2023-03-25T18:52:23;100611.81;;;10.36;66.98
33949;BME280;20229;49.856;19.030;2023-03-25T18:57:38;100610.56;;;10.26;67.38
33949;BME280;20229;49.856;19.030;2023-03-25T19:02:52;100602.41;;;10.09;67.69
33949;BME280;20229;49.856;19.030;2023-03-25T19:08:12;100606.34;;;9.87;68.91
33949;BME280;20229;49.856;19.030;2023-03-25T19:13:29;100609.66;;;9.76;69.79
33949;BME280;20229;49.856;19.030;2023-03-25T19:18:43;100603.23;;;9.77;70.57
33949;BME280;20229;49.856;19.030;2023-03-25T19:23:59;100601.91;;;9.69;70.08
33949;BME280;20229;49.856;19.030;2023-03-25T19:29:13;100597.75;;;9.62;70.32
33949;BME280;20229;49.856;19.030;2023-03-25T19:34:28;100587.66;;;9.46;70.08
33949;BME280;20229;49.856;19.030;2023-03-25T19:39:44;100584.17;;;9.27;69.88
33949;BME280;20229;49.856;19.030;2023-03-25T19:44:58;100569.44;;;9.14;68.69
33949;BME280;20229;49.856;19.030;2023-03-25T19:50:23;100566.55;;;8.99;68.51
33949;BME280;20229;49.856;19.030;2023-03-25T19:55:42;100564.55;;;8.85;68.56
33949;BME280;20229;49.856;19.030;2023-03-25T20:00:58;100553.43;;;8.73;68.94
33949;BME280;20229;49.856;19.030;2023-03-25T20:06:12;100567.34;;;8.67;68.42
33949;BME280;20229;49.856;19.030;2023-03-25T20:11:27;100579.34;;;8.63;68.81
33949;BME280;20229;49.856;19.030;2023-03-25T20:16:42;100592.42;;;8.54;68.01
33949;BME280;20229;49.856;19.030;2023-03-25T20:21:58;100585.51;;;8.66;67.83
33949;BME280;20229;49.856;19.030;2023-03-25T20:27:12;100604.65;;;8.82;67.08
33949;BME280;20229;49.856;19.030;2023-03-25T20:32:26;100612.52;;;8.88;67.06
33949;BME280;20229;49.856;19.030;2023-03-25T20:37:41;100617.66;;;8.94;67.31
33949;BME280;20229;49.856;19.030;2023-03-25T20:42:55;100615.80;;;8.95;67.03
33949;BME280;20229;49.856;19.030;2023-03-25T20:48:10;100611.87;;;9.00;67.21
33949;BME280;20229;49.856;19.030;2023-03-25T20:53:24;100608.93;;;9.05;67.23
33949;BME280;20229;49.856;19.030;2023-03-25T20:58:41;100620.36;;;9.12;66.97
33949;BME280;20229;49.856;19.030;2023-03-25T21:03:56;100637.66;;;9.10;67.37
33949;BME280;20229;49.856;19.030;2023-03-25T21:09:11;100652.89;;;9.15;67.44
33949;BME280;20229;49.856;19.030;2023-03-25T21:14:25;100669.64;;;9.24;67.35
33949;BME280;20229;49.856;19.030;2023-03-25T21:19:40;100659.95;;;9.36;67.89
33949;BME280;20229;49.856;19.030;2023-03-25T21:24:56;100663.38;;;9.40;68.29
33949;BME280;20229;49.856;19.030;2023-03-25T21:30:11;100672.38;;;9.42;67.24
33949;BME280;20229;49.856;19.030;2023-03-25T21:35:25;100680.64;;;9.40;67.29
33949;BME280;20229;49.856;19.030;2023-03-25T21:40:42;100675.09;;;9.42;66.89
33949;BME280;20229;49.856;19.030;2023-03-25T21:46:02;100691.60;;;9.39;66.83
33949;BME280;20229;49.856;19.030;2023-03-25T21:51:19;100686.25;;;9.37;67.00
33949;BME280;20229;49.856;19.030;2023-03-25T21:56:33;100679.26;;;9.31;67.51
33949;BME280;20229;49.856;19.030;2023-03-25T22:01:52;100689.44;;;9.28;67.24
33949;BME280;20229;49.856;19.030;2023-03-25T22:07:06;100672.52;;;9.21;67.56
33949;BME280;20229;49.856;19.030;2023-03-25T22:12:20;100674.19;;;9.06;67.38
33949;BME280;20229;49.856;19.030;2023-03-25T22:17:35;100675.77;;;8.93;67.24
33949;BME280;20229;49.856;19.030;2023-03-25T22:22:50;100685.34;;;8.83;67.39
33949;BME280;20229;49.856;19.030;2023-03-25T22:28:12;100679.50;;;8.73;68.24
33949;BME280;20229;49.856;19.030;2023-03-25T22:33:27;100689.71;;;8.68;68.56
33949;BME280;20229;49.856;19.030;2023-03-25T22:38:47;100681.84;;;8.62;68.75
33949;BME280;20229;49.856;19.030;2023-03-25T22:44:04;100685.47;;;8.63;68.92
33949;BME280;20229;49.856;19.030;2023-03-25T22:49:24;100691.98;;;8.58;69.15
33949;BME280;20229;49.856;19.030;2023-03-25T22:54:38;100684.74;;;8.59;68.98
33949;BME280;20229;49.856;19.030;2023-03-25T22:59:52;100683.17;;;8.53;69.27
33949;BME280;20229;49.856;19.030;2023-03-25T23:05:06;100694.35;;;8.47;68.89
33949;BME280;20229;49.856;19.030;2023-03-25T23:10:20;100688.26;;;8.42;69.45
33949;BME280;20229;49.856;19.030;2023-03-25T23:15:34;100693.76;;;8.41;69.49
33949;BME280;20229;49.856;19.030;2023-03-25T23:20:48;100689.37;;;8.38;69.71
33949;BME280;20229;49.856;19.030;2023-03-25T23:26:07;100674.03;;;8.35;70.48
33949;BME280;20229;49.856;19.030;2023-03-25T23:31:24;100685.93;;;8.33;70.33
33949;BME280;20229;49.856;19.030;2023-03-25T23:36:45;100680.50;;;8.33;70.47
33949;BME280;20229;49.856;19.030;2023-03-25T23:41:59;100691.23;;;8.36;71.23
33949;BME280;20229;49.856;19.030;2023-03-25T23:47:13;100681.85;;;8.43;70.89
33949;BME280;20229;49.856;19.030;2023-03-25T23:52:27;100687.16;;;8.46;71.05
33949;BME280;20229;49.856;19.030;2023-03-25T23:57:41;100695.81;;;8.54;70.88
